createdAt,value
2019-01-05T00:00:17.767Z,97.57
2019-01-05T00:01:17.755Z,97.36
2019-01-05T00:02:17.768Z,97.36
2019-01-05T00:03:17.742Z,97.36
2019-01-05T00:04:17.745Z,97.36
2019-01-05T00:05:17.732Z,97.06
2019-01-05T00:06:17.705Z,97.57
2019-01-05T00:07:17.690Z,97.06
2019-01-05T00:08:17.703Z,97.36
2019-01-05T00:09:17.676Z,97.16
2019-01-05T00:10:17.649Z,97.22
2019-01-05T00:11:17.664Z,97.26
2019-01-05T00:12:17.635Z,97.36
2019-01-05T00:13:17.653Z,97.36
2019-01-05T00:14:17.616Z,97.47
2019-01-05T00:15:17.627Z,97.57
2019-01-05T00:16:17.586Z,97.57
2019-01-05T00:17:17.605Z,97.36
2019-01-05T00:18:17.573Z,97.57
2019-01-05T00:19:17.588Z,97.47
2019-01-05T00:20:17.543Z,97.47
2019-01-05T00:21:19.722Z,97.57
2019-01-05T00:22:17.547Z,97.42
2019-01-05T00:23:17.555Z,97.53
2019-01-05T00:24:17.510Z,97.67
2019-01-05T00:25:17.491Z,97.63
2019-01-05T00:26:17.476Z,97.53
2019-01-05T00:27:17.469Z,97.47
2019-01-05T00:28:17.483Z,97.47
2019-01-05T00:29:17.498Z,97.36
2019-01-05T00:30:17.479Z,97.57
2019-01-05T00:31:17.422Z,97.36
2019-01-05T00:32:17.417Z,97.67
2019-01-05T00:33:17.404Z,97.57
2019-01-05T00:34:17.394Z,97.67
2019-01-05T00:35:17.407Z,97.36
2019-01-05T00:36:17.424Z,97.47
2019-01-05T00:37:17.360Z,97.53
2019-01-05T00:38:17.375Z,97.57
2019-01-05T00:39:17.336Z,97.94
2019-01-05T00:40:17.363Z,97.99
2019-01-05T00:41:17.349Z,97.74
2019-01-05T00:42:17.307Z,97.42
2019-01-05T00:43:17.292Z,97.63
2019-01-05T00:44:17.288Z,97.63
2019-01-05T00:45:17.505Z,97.42
2019-01-05T00:46:17.282Z,97.22
2019-01-05T00:47:17.264Z,97.32
2019-01-05T00:48:17.243Z,97.32
2019-01-05T00:49:17.226Z,97.32
2019-01-05T00:50:17.229Z,97.32
2019-01-05T00:51:17.240Z,97.32
2019-01-05T00:52:17.218Z,97.22
2019-01-05T00:53:17.186Z,97.32
2019-01-05T00:54:17.177Z,97.32
2019-01-05T00:55:17.166Z,97.32
2019-01-05T00:56:17.156Z,97.01
2019-01-05T00:57:17.198Z,97.22
2019-01-05T00:58:17.160Z,97.32
2019-01-05T00:59:17.116Z,97.22
2019-01-05T01:00:17.110Z,97.53
2019-01-05T01:01:17.372Z,97.32
2019-01-05T01:02:17.087Z,97.22
2019-01-05T01:03:17.119Z,97.53
2019-01-05T01:04:17.087Z,97.63
2019-01-05T01:05:17.057Z,97.63
2019-01-05T01:06:17.051Z,97.63
2019-01-05T01:07:17.082Z,97.63
2019-01-05T01:08:17.277Z,97.42
2019-01-05T01:09:17.039Z,97.53
2019-01-05T01:10:17.048Z,97.01
2019-01-05T01:11:17.041Z,97.32
2019-01-05T01:12:17.005Z,97.32
2019-01-05T01:13:16.996Z,97.32
2019-01-05T01:14:17.017Z,97.63
2019-01-05T01:15:16.976Z,97.11
2019-01-05T01:16:16.983Z,97.42
2019-01-05T01:17:16.954Z,97.11
2019-01-05T01:18:16.917Z,97.32
2019-01-05T01:19:16.909Z,97.32
2019-01-05T01:20:16.928Z,97.32
2019-01-05T01:21:16.909Z,97.32
2019-01-05T01:22:16.920Z,97.63
2019-01-05T01:23:16.914Z,97.42
2019-01-05T01:24:16.883Z,97.22
2019-01-05T01:25:16.858Z,97.53
2019-01-05T01:26:16.863Z,97.63
2019-01-05T01:27:16.843Z,97.63
2019-01-05T01:28:16.880Z,97.59
2019-01-05T01:29:16.801Z,97.42
2019-01-05T01:30:16.790Z,97.63
2019-01-05T01:31:16.773Z,97.38
2019-01-05T01:32:16.793Z,97.28
2019-01-05T01:33:16.790Z,97.32
2019-01-05T01:34:16.757Z,97.22
2019-01-05T01:35:16.765Z,97.28
2019-01-05T01:36:16.727Z,96.34
2019-01-05T01:37:16.707Z,96.76
2019-01-05T01:38:16.700Z,96.55
2019-01-05T01:39:16.716Z,96.76
2019-01-05T01:40:16.731Z,96.86
2019-01-05T01:41:16.674Z,96.76
2019-01-05T01:42:16.661Z,96.66
2019-01-05T01:43:16.651Z,96.86
2019-01-05T01:44:16.631Z,96.86
2019-01-05T01:45:16.625Z,96.91
2019-01-05T01:46:16.662Z,96.70
2019-01-05T01:47:16.623Z,96.34
2019-01-05T01:48:16.593Z,96.59
2019-01-05T01:49:16.614Z,96.59
2019-01-05T01:50:16.624Z,96.55
2019-01-05T01:51:16.598Z,96.76
2019-01-05T01:52:16.583Z,96.24
2019-01-05T01:53:16.542Z,96.55
2019-01-05T01:54:16.528Z,96.24
2019-01-05T01:55:16.524Z,96.76
2019-01-05T01:56:16.508Z,96.24
2019-01-05T01:57:16.521Z,96.34
2019-01-05T01:58:16.515Z,96.97
2019-01-05T01:59:16.488Z,96.34
2019-01-05T02:00:16.487Z,96.86
2019-01-05T02:01:16.468Z,96.66
2019-01-05T02:02:16.443Z,96.86
2019-01-05T02:03:16.438Z,96.76
2019-01-05T02:04:16.435Z,96.86
2019-01-05T02:05:16.444Z,96.86
2019-01-05T02:06:16.408Z,96.45
2019-01-05T02:07:16.400Z,96.66
2019-01-05T02:08:16.378Z,96.97
2019-01-05T02:09:16.398Z,97.11
2019-01-05T02:10:16.384Z,97.28
2019-01-05T02:11:16.363Z,96.86
2019-01-05T02:12:16.335Z,97.59
2019-01-05T02:13:16.324Z,96.86
2019-01-05T02:14:16.310Z,97.59
2019-01-05T02:15:16.317Z,97.59
2019-01-05T02:16:16.327Z,97.49
2019-01-05T02:17:16.284Z,97.59
2019-01-05T02:18:16.272Z,97.17
2019-01-05T02:19:16.264Z,97.28
2019-01-05T02:20:16.249Z,97.17
2019-01-05T02:21:16.261Z,97.28
2019-01-05T02:22:16.499Z,97.38
2019-01-05T02:23:16.216Z,97.28
2019-01-05T02:24:16.207Z,97.59
2019-01-05T02:25:16.200Z,97.38
2019-01-05T02:26:16.180Z,97.28
2019-01-05T02:27:16.209Z,97.17
2019-01-05T02:28:16.215Z,97.69
2019-01-05T02:29:16.152Z,97.79
2019-01-05T02:30:16.143Z,97.69
2019-01-05T02:31:16.178Z,97.59
2019-01-05T02:32:16.120Z,97.49
2019-01-05T02:33:16.162Z,97.69
2019-01-05T02:34:16.095Z,97.28
2019-01-05T02:35:16.085Z,97.49
2019-01-05T02:36:16.072Z,97.38
2019-01-05T02:37:16.064Z,97.38
2019-01-05T02:38:16.049Z,97.38
2019-01-05T02:39:16.098Z,97.79
2019-01-05T02:40:16.028Z,98.00
2019-01-05T02:41:16.318Z,98.10
2019-01-05T02:42:16.021Z,98.00
2019-01-05T02:43:15.996Z,97.69
2019-01-05T02:44:15.988Z,97.79
2019-01-05T02:45:16.010Z,98.00
2019-01-05T02:46:15.975Z,97.79
2019-01-05T02:47:15.977Z,98.00
2019-01-05T02:48:15.947Z,98.00
2019-01-05T02:49:15.928Z,98.00
2019-01-05T02:50:15.949Z,97.79
2019-01-05T02:51:15.960Z,97.79
2019-01-05T02:52:15.934Z,97.79
2019-01-05T02:53:15.914Z,97.79
2019-01-05T02:54:15.902Z,97.96
2019-01-05T02:55:15.880Z,98.00
2019-01-05T02:56:15.853Z,97.89
2019-01-05T02:57:15.861Z,97.89
2019-01-05T02:58:15.888Z,97.49
2019-01-05T02:59:16.024Z,97.69
2019-01-05T03:00:15.836Z,97.59
2019-01-05T03:01:15.824Z,97.64
2019-01-05T03:02:15.837Z,97.59
2019-01-05T03:03:15.800Z,97.69
2019-01-05T03:04:15.797Z,97.89
2019-01-05T03:05:15.786Z,98.00
2019-01-05T03:06:15.745Z,97.96
2019-01-05T03:07:15.738Z,98.06
2019-01-05T03:08:15.773Z,98.06
2019-01-05T03:09:15.770Z,97.85
2019-01-05T03:10:15.716Z,97.75
2019-01-05T03:11:15.693Z,97.75
2019-01-05T03:12:15.683Z,97.85
2019-01-05T03:13:15.701Z,97.75
2019-01-05T03:14:15.746Z,97.85
2019-01-05T03:15:15.660Z,98.06
2019-01-05T03:16:15.641Z,97.89
2019-01-05T03:17:15.626Z,97.85
2019-01-05T03:18:15.642Z,98.27
2019-01-05T03:19:15.629Z,98.37
2019-01-05T03:20:15.611Z,98.37
2019-01-05T03:21:15.584Z,98.16
2019-01-05T03:22:15.576Z,98.37
2019-01-05T03:23:15.564Z,98.57
2019-01-05T03:24:15.586Z,98.16
2019-01-05T03:25:15.541Z,98.47
2019-01-05T03:26:15.550Z,98.47
2019-01-05T03:27:15.526Z,98.57
2019-01-05T03:28:15.510Z,98.37
2019-01-05T03:29:15.785Z,98.27
2019-01-05T03:30:15.487Z,98.27
2019-01-05T03:31:15.483Z,98.47
2019-01-05T03:32:15.508Z,98.63
2019-01-05T03:33:15.462Z,98.57
2019-01-05T03:34:15.442Z,98.68
2019-01-05T03:35:15.491Z,98.37
2019-01-05T03:36:15.422Z,98.68
2019-01-05T03:37:15.446Z,98.47
2019-01-05T03:38:15.406Z,98.37
2019-01-05T03:39:15.395Z,98.37
2019-01-05T03:40:15.415Z,98.57
2019-01-05T03:41:15.374Z,98.57
2019-01-05T03:42:15.361Z,98.57
2019-01-05T03:43:15.386Z,98.11
2019-01-05T03:44:15.342Z,98.53
2019-01-05T03:45:15.351Z,98.57
2019-01-05T03:46:15.325Z,98.43
2019-01-05T03:47:15.316Z,98.53
2019-01-05T03:48:15.298Z,98.43
2019-01-05T03:49:15.304Z,98.53
2019-01-05T03:50:15.282Z,98.53
2019-01-05T03:51:15.290Z,98.74
2019-01-05T03:52:15.255Z,98.94
2019-01-05T03:53:15.241Z,98.63
2019-01-05T03:54:15.237Z,99.15
2019-01-05T03:55:15.242Z,98.74
2019-01-05T03:56:15.444Z,98.94
2019-01-05T03:57:15.203Z,98.53
2019-01-05T03:58:15.192Z,98.63
2019-01-05T03:59:15.188Z,98.74
2019-01-05T04:00:15.170Z,98.84
2019-01-05T04:01:15.170Z,98.84
2019-01-05T04:02:15.174Z,98.43
2019-01-05T04:03:15.136Z,98.79
2019-01-05T04:04:15.133Z,99.15
2019-01-05T04:05:15.153Z,99.05
2019-01-05T04:06:15.132Z,99.05
2019-01-05T04:07:15.125Z,98.94
2019-01-05T04:08:15.091Z,99.05
2019-01-05T04:09:15.077Z,99.00
2019-01-05T04:10:15.060Z,99.05
2019-01-05T04:11:15.052Z,99.05
2019-01-05T04:12:15.073Z,98.84
2019-01-05T04:13:15.057Z,98.84
2019-01-05T04:14:15.025Z,98.84
2019-01-05T04:15:15.007Z,98.84
2019-01-05T04:16:14.999Z,98.84
2019-01-05T04:17:14.991Z,98.53
2019-01-05T04:18:15.266Z,99.05
2019-01-05T04:19:14.997Z,98.63
2019-01-05T04:20:14.959Z,98.74
2019-01-05T04:21:14.943Z,98.63
2019-01-05T04:22:14.939Z,98.79
2019-01-05T04:23:14.927Z,98.58
2019-01-05T04:24:14.954Z,98.69
2019-01-05T04:25:14.950Z,98.94
2019-01-05T04:26:14.892Z,98.79
2019-01-05T04:27:14.886Z,99.00
2019-01-05T04:28:14.906Z,98.90
2019-01-05T04:29:14.860Z,99.00
2019-01-05T04:30:14.851Z,98.79
2019-01-05T04:31:14.990Z,98.79
2019-01-05T04:32:14.839Z,99.00
2019-01-05T04:33:14.855Z,98.79
2019-01-05T04:34:14.839Z,99.00
2019-01-05T04:35:14.821Z,98.90
2019-01-05T04:36:14.789Z,98.79
2019-01-05T04:37:14.826Z,98.90
2019-01-05T04:38:14.994Z,99.00
2019-01-05T04:39:14.780Z,98.75
2019-01-05T04:40:14.748Z,99.06
2019-01-05T04:41:14.757Z,98.49
2019-01-05T04:42:14.743Z,98.75
2019-01-05T04:43:14.791Z,98.90
2019-01-05T04:44:14.704Z,98.90
2019-01-05T04:45:14.693Z,99.10
2019-01-05T04:46:14.684Z,99.06
2019-01-05T04:47:14.733Z,98.54
2019-01-05T04:48:14.716Z,98.23
2019-01-05T04:49:14.731Z,98.33
2019-01-05T04:50:14.665Z,98.33
2019-01-05T04:51:14.654Z,98.13
2019-01-05T04:52:14.624Z,98.44
2019-01-05T04:53:14.633Z,97.97
2019-01-05T04:54:14.611Z,98.54
2019-01-05T04:55:14.613Z,98.54
2019-01-05T04:56:14.580Z,98.38
2019-01-05T04:57:14.570Z,98.44
2019-01-05T04:58:14.586Z,98.58
2019-01-05T04:59:14.545Z,98.13
2019-01-05T05:00:14.548Z,98.28
2019-01-05T05:01:14.545Z,98.58
2019-01-05T05:02:14.522Z,98.28
2019-01-05T05:03:14.500Z,98.54
2019-01-05T05:04:14.518Z,98.33
2019-01-05T05:05:14.759Z,98.33
2019-01-05T05:06:14.493Z,98.33
2019-01-05T05:07:14.462Z,98.13
2019-01-05T05:08:14.443Z,98.33
2019-01-05T05:09:14.439Z,98.44
2019-01-05T05:10:14.425Z,98.54
2019-01-05T05:11:14.441Z,98.23
2019-01-05T05:12:14.425Z,98.23
2019-01-05T05:13:14.396Z,98.33
2019-01-05T05:14:14.385Z,98.33
2019-01-05T05:15:14.405Z,98.44
2019-01-05T05:16:14.363Z,98.13
2019-01-05T05:17:14.350Z,98.44
2019-01-05T05:18:14.369Z,98.13
2019-01-05T05:19:14.332Z,98.33
2019-01-05T05:20:14.358Z,98.23
2019-01-05T05:21:14.314Z,98.85
2019-01-05T05:22:14.306Z,98.96
2019-01-05T05:23:14.289Z,98.96
2019-01-05T05:24:14.310Z,98.85
2019-01-05T05:25:14.263Z,99.06
2019-01-05T05:26:14.283Z,99.06
2019-01-05T05:27:14.252Z,99.06
2019-01-05T05:28:14.238Z,98.65
2019-01-05T05:29:14.231Z,98.65
2019-01-05T05:30:14.243Z,98.65
2019-01-05T05:31:14.216Z,98.65
2019-01-05T05:32:14.222Z,98.65
2019-01-05T05:33:14.192Z,98.65
2019-01-05T05:34:14.169Z,98.85
2019-01-05T05:35:14.163Z,99.16
2019-01-05T05:36:14.189Z,98.96
2019-01-05T05:37:14.154Z,99.06
2019-01-05T05:38:14.135Z,99.06
2019-01-05T05:39:14.140Z,98.85
2019-01-05T05:40:14.108Z,98.75
2019-01-05T05:41:14.124Z,99.06
2019-01-05T05:42:14.121Z,98.96
2019-01-05T05:43:14.075Z,99.06
2019-01-05T05:44:14.101Z,98.85
2019-01-05T05:45:14.054Z,98.65
2019-01-05T05:46:14.041Z,98.85
2019-01-05T05:47:14.064Z,98.54
2019-01-05T05:48:14.020Z,98.75
2019-01-05T05:49:14.015Z,98.85
2019-01-05T05:50:14.026Z,98.75
2019-01-05T05:51:13.995Z,98.23
2019-01-05T05:52:14.017Z,98.54
2019-01-05T05:53:13.994Z,98.54
2019-01-05T05:54:13.963Z,98.44
2019-01-05T05:55:13.956Z,98.44
2019-01-05T05:56:13.943Z,98.65
2019-01-05T05:57:13.924Z,98.23
2019-01-05T05:58:13.941Z,98.33
2019-01-05T05:59:13.923Z,98.33
2019-01-05T06:00:13.898Z,98.44
2019-01-05T06:01:13.884Z,98.65
2019-01-05T06:02:13.893Z,98.44
2019-01-05T06:03:13.860Z,98.33
2019-01-05T06:04:13.857Z,98.33
2019-01-05T06:05:13.854Z,98.54
2019-01-05T06:06:13.856Z,98.33
2019-01-05T06:07:13.827Z,98.23
2019-01-05T06:08:13.804Z,98.23
2019-01-05T06:09:13.798Z,98.23
2019-01-05T06:10:13.798Z,98.65
2019-01-05T06:11:13.804Z,98.33
2019-01-05T06:12:13.795Z,98.23
2019-01-05T06:13:13.754Z,98.23
2019-01-05T06:14:13.779Z,98.23
2019-01-05T06:15:13.734Z,98.33
2019-01-05T06:16:13.735Z,98.13
2019-01-05T06:17:13.707Z,98.44
2019-01-05T06:18:13.766Z,98.33
2019-01-05T06:19:13.694Z,98.44
2019-01-05T06:20:13.710Z,98.44
2019-01-05T06:21:13.692Z,98.33
2019-01-05T06:22:13.712Z,98.33
2019-01-05T06:23:13.683Z,98.33
2019-01-05T06:24:13.672Z,98.13
2019-01-05T06:25:13.632Z,98.13
2019-01-05T06:26:13.614Z,98.23
2019-01-05T06:27:13.728Z,97.92
2019-01-05T06:28:13.642Z,98.54
2019-01-05T06:29:13.636Z,98.44
2019-01-05T06:30:13.599Z,98.54
2019-01-05T06:31:13.590Z,98.44
2019-01-05T06:32:13.589Z,98.44
2019-01-05T06:33:13.552Z,98.44
2019-01-05T06:34:13.615Z,98.44
2019-01-05T06:35:13.529Z,98.65
2019-01-05T06:36:13.512Z,98.44
2019-01-05T06:37:13.523Z,98.54
2019-01-05T06:38:13.646Z,98.44
2019-01-05T06:39:13.530Z,98.23
2019-01-05T06:40:13.475Z,98.54
2019-01-05T06:41:13.462Z,98.23
2019-01-05T06:42:13.478Z,98.23
2019-01-05T06:43:13.442Z,98.44
2019-01-05T06:44:13.433Z,98.54
2019-01-05T06:45:13.468Z,98.54
2019-01-05T06:46:13.406Z,98.44
2019-01-05T06:47:13.396Z,98.54
2019-01-05T06:48:13.387Z,98.44
2019-01-05T06:49:13.406Z,98.44
2019-01-05T06:50:13.402Z,98.44
2019-01-05T06:51:13.354Z,98.44
2019-01-05T06:52:13.337Z,98.65
2019-01-05T06:53:13.335Z,98.54
2019-01-05T06:54:13.328Z,98.44
2019-01-05T06:55:13.349Z,98.44
2019-01-05T06:56:13.328Z,98.13
2019-01-05T06:57:13.288Z,98.54
2019-01-05T06:58:13.278Z,98.13
2019-01-05T06:59:13.272Z,98.13
2019-01-05T07:00:13.261Z,98.33
2019-01-05T07:01:13.272Z,98.23
2019-01-05T07:02:13.258Z,98.33
2019-01-05T07:03:13.229Z,98.13
2019-01-05T07:04:13.210Z,98.33
2019-01-05T07:05:13.199Z,98.33
2019-01-05T07:06:13.220Z,98.23
2019-01-05T07:07:13.200Z,98.33
2019-01-05T07:08:13.176Z,98.33
2019-01-05T07:09:13.162Z,98.13
2019-01-05T07:10:13.153Z,98.33
2019-01-05T07:11:13.138Z,98.33
2019-01-05T07:12:13.362Z,98.54
2019-01-05T07:13:13.144Z,98.33
2019-01-05T07:14:13.106Z,98.44
2019-01-05T07:15:13.103Z,98.33
2019-01-05T07:16:13.085Z,98.13
2019-01-05T07:17:13.076Z,98.33
2019-01-05T07:18:13.091Z,98.23
2019-01-05T07:19:13.092Z,98.54
2019-01-05T07:20:13.049Z,98.33
2019-01-05T07:21:13.055Z,98.54
2019-01-05T07:22:13.022Z,98.65
2019-01-05T07:23:13.009Z,98.44
2019-01-05T07:24:13.065Z,98.23
2019-01-05T07:25:13.014Z,98.54
2019-01-05T07:26:12.981Z,98.44
2019-01-05T07:27:13.138Z,98.23
2019-01-05T07:28:13.027Z,98.23
2019-01-05T07:29:12.949Z,98.44
2019-01-05T07:30:12.938Z,98.44
2019-01-05T07:31:12.943Z,98.23
2019-01-05T07:32:13.172Z,98.23
2019-01-05T07:33:12.932Z,98.23
2019-01-05T07:34:12.894Z,98.23
2019-01-05T07:35:12.884Z,98.23
2019-01-05T07:36:12.887Z,98.13
2019-01-05T07:37:12.871Z,98.44
2019-01-05T07:38:12.878Z,98.33
2019-01-05T07:39:12.843Z,98.13
2019-01-05T07:40:12.835Z,98.13
2019-01-05T07:41:12.819Z,98.33
2019-01-05T07:42:12.860Z,98.23
2019-01-05T07:43:12.820Z,97.92
2019-01-05T07:44:12.791Z,98.02
2019-01-05T07:45:12.777Z,98.23
2019-01-05T07:46:12.767Z,98.13
2019-01-05T07:47:12.754Z,97.82
2019-01-05T07:48:12.793Z,97.92
2019-01-05T07:49:12.757Z,97.72
2019-01-05T07:50:12.724Z,97.61
2019-01-05T07:51:12.759Z,97.72
2019-01-05T07:52:12.704Z,97.72
2019-01-05T07:53:12.724Z,97.51
2019-01-05T07:54:12.703Z,97.67
2019-01-05T07:55:12.678Z,97.72
2019-01-05T07:56:12.661Z,97.82
2019-01-05T07:57:12.649Z,97.61
2019-01-05T07:58:12.636Z,97.72
2019-01-05T07:59:12.687Z,97.92
2019-01-05T08:00:12.636Z,97.51
2019-01-05T08:01:12.607Z,97.51
2019-01-05T08:02:12.594Z,97.61
2019-01-05T08:03:12.592Z,97.51
2019-01-05T08:04:12.601Z,97.77
2019-01-05T08:05:12.644Z,97.56
2019-01-05T08:06:12.600Z,97.56
2019-01-05T08:07:12.608Z,97.41
2019-01-05T08:08:12.551Z,97.61
2019-01-05T08:09:12.605Z,97.51
2019-01-05T08:10:12.534Z,97.56
2019-01-05T08:11:12.553Z,97.61
2019-01-05T08:12:12.541Z,97.56
2019-01-05T08:13:12.508Z,97.56
2019-01-05T08:14:12.493Z,97.72
2019-01-05T08:15:12.476Z,97.67
2019-01-05T08:16:12.466Z,97.61
2019-01-05T08:17:12.461Z,97.88
2019-01-05T08:18:12.426Z,97.56
2019-01-05T08:19:12.489Z,97.47
2019-01-05T08:20:12.404Z,97.67
2019-01-05T08:21:12.423Z,97.72
2019-01-05T08:22:12.381Z,97.61
2019-01-05T08:23:12.388Z,97.56
2019-01-05T08:24:12.372Z,97.30
2019-01-05T08:25:12.372Z,97.16
2019-01-05T08:26:12.340Z,97.26
2019-01-05T08:27:12.329Z,97.26
2019-01-05T08:28:12.318Z,96.95
2019-01-05T08:29:12.324Z,97.05
2019-01-05T08:30:12.325Z,97.05
2019-01-05T08:31:12.284Z,97.26
2019-01-05T08:32:12.273Z,97.05
2019-01-05T08:33:12.266Z,96.74
2019-01-05T08:34:12.251Z,96.74
2019-01-05T08:35:12.296Z,96.95
2019-01-05T08:36:12.231Z,96.84
2019-01-05T08:37:12.227Z,96.95
2019-01-05T08:38:12.210Z,97.16
2019-01-05T08:39:12.200Z,97.09
2019-01-05T08:40:12.217Z,97.36
2019-01-05T08:41:12.198Z,97.16
2019-01-05T08:42:12.171Z,97.36
2019-01-05T08:43:12.158Z,97.26
2019-01-05T08:44:12.147Z,97.16
2019-01-05T08:45:12.188Z,97.16
2019-01-05T08:46:12.172Z,97.05
2019-01-05T08:47:12.183Z,97.67
2019-01-05T08:48:12.103Z,97.41
2019-01-05T08:49:12.090Z,97.16
2019-01-05T08:50:12.105Z,97.47
2019-01-05T08:51:12.074Z,97.26
2019-01-05T08:52:12.063Z,97.26
2019-01-05T08:53:12.070Z,97.47
2019-01-05T08:54:12.041Z,97.56
2019-01-05T08:55:12.055Z,97.26
2019-01-05T08:56:12.022Z,97.47
2019-01-05T08:57:12.037Z,97.05
2019-01-05T08:58:12.033Z,97.36
2019-01-05T08:59:13.196Z,96.95
2019-01-05T09:00:12.011Z,97.05
2019-01-05T09:01:11.968Z,97.16
2019-01-05T09:02:11.976Z,97.26
2019-01-05T09:03:11.943Z,97.26
2019-01-05T09:04:11.932Z,97.36
2019-01-05T09:05:11.945Z,97.26
2019-01-05T09:06:11.948Z,97.36
2019-01-05T09:07:11.925Z,97.47
2019-01-05T09:08:11.895Z,97.26
2019-01-05T09:09:11.884Z,97.16
2019-01-05T09:10:11.889Z,97.26
2019-01-05T09:11:11.884Z,96.95
2019-01-05T09:12:11.844Z,96.84
2019-01-05T09:13:11.835Z,97.26
2019-01-05T09:14:11.834Z,97.47
2019-01-05T09:15:11.823Z,97.05
2019-01-05T09:16:11.846Z,97.56
2019-01-05T09:17:11.824Z,97.26
2019-01-05T09:18:11.783Z,97.26
2019-01-05T09:19:11.772Z,97.05
2019-01-05T09:20:11.765Z,97.16
2019-01-05T09:21:11.749Z,97.47
2019-01-05T09:22:11.760Z,97.05
2019-01-05T09:23:11.754Z,97.26
2019-01-05T09:24:11.720Z,97.16
2019-01-05T09:25:11.714Z,97.26
2019-01-05T09:26:11.734Z,97.16
2019-01-05T09:27:11.711Z,97.05
2019-01-05T09:28:11.699Z,97.47
2019-01-05T09:29:11.676Z,97.26
2019-01-05T09:30:11.685Z,97.56
2019-01-05T09:31:11.645Z,97.77
2019-01-05T09:32:11.634Z,97.98
2019-01-05T09:33:11.623Z,97.77
2019-01-05T09:34:11.622Z,97.67
2019-01-05T09:35:11.603Z,97.77
2019-01-05T09:36:11.627Z,97.36
2019-01-05T09:37:11.577Z,97.77
2019-01-05T09:38:11.569Z,97.26
2019-01-05T09:39:11.592Z,97.26
2019-01-05T09:40:11.579Z,97.47
2019-01-05T09:41:11.532Z,97.56
2019-01-05T09:42:11.556Z,97.16
2019-01-05T09:43:11.536Z,97.26
2019-01-05T09:44:11.528Z,97.67
2019-01-05T09:45:11.524Z,97.98
2019-01-05T09:46:11.497Z,97.67
2019-01-05T09:47:11.536Z,97.67
2019-01-05T09:48:11.521Z,97.67
2019-01-05T09:49:11.447Z,97.67
2019-01-05T09:50:11.439Z,97.67
2019-01-05T09:51:11.451Z,97.67
2019-01-05T09:52:11.452Z,97.67
2019-01-05T09:53:11.407Z,97.56
2019-01-05T09:54:11.444Z,97.56
2019-01-05T09:55:11.389Z,97.56
2019-01-05T09:56:11.405Z,97.52
2019-01-05T09:57:11.372Z,97.56
2019-01-05T09:58:11.391Z,97.67
2019-01-05T09:59:11.345Z,97.77
2019-01-05T10:00:11.330Z,97.73
2019-01-05T10:01:11.347Z,97.67
2019-01-05T10:02:11.310Z,97.67
2019-01-05T10:03:11.353Z,97.77
2019-01-05T10:04:11.319Z,97.77
2019-01-05T10:05:11.279Z,97.67
2019-01-05T10:06:11.291Z,97.56
2019-01-05T10:07:11.261Z,97.88
2019-01-05T10:08:11.243Z,97.67
2019-01-05T10:09:11.238Z,97.56
2019-01-05T10:10:11.232Z,97.56
2019-01-05T10:11:11.222Z,97.77
2019-01-05T10:12:11.242Z,97.67
2019-01-05T10:13:11.200Z,97.52
2019-01-05T10:14:11.186Z,97.56
2019-01-05T10:15:11.202Z,97.77
2019-01-05T10:16:11.191Z,97.73
2019-01-05T10:17:11.156Z,97.56
2019-01-05T10:18:11.145Z,97.63
2019-01-05T10:19:11.139Z,97.77
2019-01-05T10:20:11.176Z,97.73
2019-01-05T10:21:11.135Z,97.88
2019-01-05T10:22:11.122Z,97.16
2019-01-05T10:23:11.087Z,97.11
2019-01-05T10:24:11.079Z,97.16
2019-01-05T10:25:11.104Z,97.56
2019-01-05T10:26:11.083Z,97.21
2019-01-05T10:27:11.043Z,97.47
2019-01-05T10:28:11.052Z,97.42
2019-01-05T10:29:11.022Z,97.52
2019-01-05T10:30:11.042Z,97.52
2019-01-05T10:31:11.005Z,97.21
2019-01-05T10:32:11.035Z,97.11
2019-01-05T10:33:11.015Z,97.11
2019-01-05T10:34:10.989Z,96.91
2019-01-05T10:35:10.988Z,97.01
2019-01-05T10:36:10.955Z,96.91
2019-01-05T10:37:10.948Z,96.70
2019-01-05T10:38:10.932Z,97.11
2019-01-05T10:39:10.919Z,96.59
2019-01-05T10:40:10.930Z,96.80
2019-01-05T10:41:10.929Z,96.80
2019-01-05T10:42:10.886Z,96.70
2019-01-05T10:43:10.877Z,96.28
2019-01-05T10:44:10.887Z,96.28
2019-01-05T10:45:10.854Z,96.59
2019-01-05T10:46:10.890Z,96.59
2019-01-05T10:47:10.855Z,96.49
2019-01-05T10:48:10.826Z,96.49
2019-01-05T10:49:11.104Z,96.59
2019-01-05T10:50:10.802Z,96.49
2019-01-05T10:51:10.818Z,96.59
2019-01-05T10:52:10.801Z,96.59
2019-01-05T10:53:10.774Z,96.39
2019-01-05T10:54:10.758Z,96.70
2019-01-05T10:55:10.770Z,96.39
2019-01-05T10:56:10.736Z,96.49
2019-01-05T10:57:10.726Z,96.39
2019-01-05T10:58:10.799Z,96.28
2019-01-05T10:59:10.703Z,96.80
2019-01-05T11:00:10.699Z,96.70
2019-01-05T11:01:10.691Z,96.80
2019-01-05T11:02:10.674Z,96.28
2019-01-05T11:03:10.662Z,96.49
2019-01-05T11:04:10.852Z,96.70
2019-01-05T11:05:10.670Z,96.18
2019-01-05T11:06:10.634Z,96.18
2019-01-05T11:07:10.618Z,96.91
2019-01-05T11:08:10.646Z,96.91
2019-01-05T11:09:10.597Z,97.01
2019-01-05T11:10:10.599Z,97.01
2019-01-05T11:11:10.574Z,97.21
2019-01-05T11:12:10.562Z,97.31
2019-01-05T11:13:10.556Z,97.11
2019-01-05T11:14:10.558Z,97.11
2019-01-05T11:15:10.530Z,96.80
2019-01-05T11:16:10.540Z,97.31
2019-01-05T11:17:10.505Z,97.21
2019-01-05T11:18:10.516Z,96.91
2019-01-05T11:19:10.509Z,97.11
2019-01-05T11:20:10.478Z,97.06
2019-01-05T11:21:10.496Z,97.06
2019-01-05T11:22:10.465Z,97.31
2019-01-05T11:23:10.440Z,97.11
2019-01-05T11:24:10.483Z,97.31
2019-01-05T11:25:10.437Z,96.96
2019-01-05T11:26:10.406Z,96.91
2019-01-05T11:27:10.401Z,97.21
2019-01-05T11:28:10.445Z,97.01
2019-01-05T11:29:10.398Z,97.01
2019-01-05T11:30:10.357Z,97.01
2019-01-05T11:31:10.350Z,97.01
2019-01-05T11:32:10.374Z,96.91
2019-01-05T11:33:10.360Z,97.01
2019-01-05T11:34:10.380Z,96.80
2019-01-05T11:35:10.379Z,96.80
2019-01-05T11:36:10.322Z,97.21
2019-01-05T11:37:10.422Z,97.01
2019-01-05T11:38:10.321Z,96.75
2019-01-05T11:39:10.264Z,96.18
2019-01-05T11:40:10.334Z,97.01
2019-01-05T11:41:10.278Z,97.17
2019-01-05T11:42:10.234Z,96.80
2019-01-05T11:43:10.274Z,97.21
2019-01-05T11:44:10.785Z,97.11
2019-01-05T11:45:10.243Z,97.11
2019-01-05T11:46:10.939Z,97.31
2019-01-05T11:47:10.184Z,96.80
2019-01-05T11:48:10.176Z,97.01
2019-01-05T11:49:10.171Z,96.18
2019-01-05T11:50:10.190Z,96.28
2019-01-05T11:51:10.126Z,96.49
2019-01-05T11:52:10.149Z,96.39
2019-01-05T11:53:10.163Z,96.28
2019-01-05T11:54:10.096Z,96.49
2019-01-05T11:55:10.130Z,96.28
2019-01-05T11:56:10.074Z,96.08
2019-01-05T11:57:10.113Z,95.98
2019-01-05T11:58:10.067Z,96.18
2019-01-05T11:59:10.068Z,96.49
2019-01-05T12:00:10.052Z,96.49
2019-01-05T12:01:10.082Z,96.39
2019-01-05T12:02:10.039Z,96.49
2019-01-05T12:03:10.025Z,96.18
2019-01-05T12:04:09.988Z,96.28
2019-01-05T12:05:09.980Z,96.49
2019-01-05T12:06:09.968Z,96.28
2019-01-05T12:07:09.973Z,95.98
2019-01-05T12:08:09.979Z,96.18
2019-01-05T12:09:09.939Z,95.62
2019-01-05T12:10:09.947Z,95.56
2019-01-05T12:11:09.911Z,95.36
2019-01-05T12:12:09.948Z,95.67
2019-01-05T12:13:09.907Z,95.21
2019-01-05T12:14:09.888Z,95.62
2019-01-05T12:15:09.912Z,96.03
2019-01-05T12:16:09.917Z,95.83
2019-01-05T12:17:09.850Z,95.73
2019-01-05T12:18:09.866Z,95.42
2019-01-05T12:19:09.860Z,95.62
2019-01-05T12:20:09.852Z,95.62
2019-01-05T12:21:10.076Z,95.93
2019-01-05T12:22:09.801Z,95.73
2019-01-05T12:23:09.826Z,95.83
2019-01-05T12:24:09.774Z,95.62
2019-01-05T12:25:09.768Z,95.62
2019-01-05T12:26:09.753Z,95.73
2019-01-05T12:27:09.770Z,95.93
2019-01-05T12:28:09.733Z,95.62
2019-01-05T12:29:09.721Z,95.93
2019-01-05T12:30:09.712Z,95.42
2019-01-05T12:31:09.723Z,95.52
2019-01-05T12:32:09.718Z,95.73
2019-01-05T12:33:09.703Z,95.52
2019-01-05T12:34:09.666Z,95.42
2019-01-05T12:35:09.664Z,95.21
2019-01-05T12:36:09.669Z,95.62
2019-01-05T12:37:09.657Z,95.42
2019-01-05T12:38:09.646Z,96.03
2019-01-05T12:39:09.614Z,95.73
2019-01-05T12:40:09.670Z,95.93
2019-01-05T12:41:09.591Z,95.52
2019-01-05T12:42:09.639Z,95.62
2019-01-05T12:43:09.604Z,96.03
2019-01-05T12:44:09.578Z,95.93
2019-01-05T12:45:09.554Z,96.34
2019-01-05T12:46:09.589Z,96.45
2019-01-05T12:47:09.528Z,96.34
2019-01-05T12:48:09.568Z,96.45
2019-01-05T12:49:09.527Z,96.03
2019-01-05T12:50:09.544Z,96.34
2019-01-05T12:51:09.483Z,96.34
2019-01-05T12:52:09.473Z,96.24